createdAt,value
2018-03-04T16:36:22.579Z,10.1
2018-03-04T16:37:22.486Z,9.8
2018-03-04T16:38:22.408Z,9
2018-03-04T16:41:21.810Z,8.1
2018-03-04T16:43:21.472Z,7.8
2018-03-04T16:45:21.147Z,7.7
2018-03-04T16:46:21.492Z,7.6
2018-03-04T16:47:21.498Z,7.5
2018-03-04T16:48:21.420Z,7.5
2018-03-04T16:50:21.105Z,7.4
2018-03-04T16:51:21.054Z,7.3
2018-03-04T16:53:20.870Z,7.3
2018-03-04T16:55:20.528Z,7.2
2018-03-04T16:57:20.552Z,7
2018-03-04T16:59:20.169Z,7
2018-03-04T17:01:20.053Z,7
2018-03-04T17:03:19.721Z,7
2018-03-04T17:06:19.542Z,6.9
2018-03-04T17:08:19.172Z,6.9
2018-03-04T17:10:18.824Z,6.8
2018-03-04T17:12:18.534Z,6.7
2018-03-04T17:14:18.168Z,6.7
2018-03-04T17:16:18.180Z,6.6
2018-03-04T17:20:17.353Z,6.6
2018-03-04T17:22:17.059Z,6.5
2018-03-04T17:25:16.464Z,6.5
2018-03-04T17:26:16.782Z,6.4
2018-03-04T17:28:16.448Z,6.4
2018-03-04T17:30:16.108Z,6.3
2018-03-04T17:32:15.879Z,6.2
2018-03-04T17:34:15.688Z,6.1
2018-03-04T17:38:15.728Z,5.9
2018-03-04T17:41:15.413Z,5.8
2018-03-04T17:43:15.105Z,5.8
2018-03-04T17:48:14.777Z,5.6
2018-03-04T17:51:14.255Z,5.6
2018-03-04T17:54:13.661Z,5.5
2018-03-04T17:56:13.695Z,5.4
2018-03-04T17:58:13.374Z,5.4
2018-03-04T18:00:13.057Z,5.4
2018-03-04T18:02:12.714Z,5.3
2018-03-04T18:04:12.373Z,5.2
2018-03-04T18:08:11.872Z,5.3
2018-03-04T18:10:11.547Z,5.2
2018-03-04T18:12:11.600Z,5.1
2018-03-04T18:14:11.573Z,5.1
2018-03-04T18:16:11.670Z,5.1
2018-03-04T18:18:11.321Z,5
2018-03-04T18:23:10.292Z,4.9
2018-03-04T18:27:09.877Z,4.9
2018-03-04T18:33:09.173Z,4.8
2018-03-04T18:35:08.919Z,4.7
2018-03-04T18:40:08.431Z,4.9
2018-03-04T18:42:08.254Z,4.8
2018-03-04T18:45:07.861Z,4.7
2018-03-04T18:49:07.447Z,4.7
2018-03-04T18:51:07.141Z,4.5
2018-03-04T18:54:06.563Z,4.6
2018-03-04T18:56:06.727Z,4.5
2018-03-04T18:59:06.542Z,4.5
2018-03-04T19:01:06.188Z,4.5
2018-03-04T19:03:06.233Z,4.3
2018-03-04T19:06:07.158Z,4.3
2018-03-04T19:08:06.787Z,4.2
2018-03-04T19:13:05.728Z,4.3
2018-03-04T19:15:05.389Z,4.2
2018-03-04T19:16:05.750Z,4.1
2018-03-04T19:18:05.450Z,4.1
2018-03-04T19:20:05.115Z,4.1
2018-03-04T19:22:04.839Z,4.1
2018-03-04T19:25:04.246Z,4.1
2018-03-04T19:26:04.580Z,4
2018-03-04T19:28:04.286Z,4
2018-03-04T19:30:03.971Z,4
2018-03-04T19:32:03.729Z,3.9
2018-03-04T19:34:03.613Z,3.8
2018-03-04T19:38:03.255Z,3.9
2018-03-04T19:42:02.447Z,3.9
2018-03-04T19:44:02.294Z,3.8
2018-03-04T19:46:02.371Z,3.8
2018-03-04T19:48:02.386Z,3.8
2018-03-04T19:53:01.399Z,4
2018-03-04T19:55:01.078Z,3.9
2018-03-04T19:56:01.778Z,3.8
2018-03-04T19:58:01.729Z,3.8
2018-03-04T20:00:01.380Z,3.8
2018-03-04T20:02:01.176Z,3.7
2018-03-04T20:05:00.999Z,3.8
2018-03-04T20:06:01.305Z,3.7
2018-03-04T20:08:00.986Z,3.6
2018-03-04T20:10:00.699Z,3.6
2018-03-04T20:13:00.129Z,3.6
2018-03-04T20:14:59.831Z,3.6
2018-03-04T20:16:00.173Z,3.5
2018-03-04T20:17:59.979Z,3.6
2018-03-04T20:19:59.701Z,3.6
2018-03-04T20:22:59.109Z,3.6
2018-03-04T20:25:58.895Z,3.7
2018-03-04T20:27:58.511Z,3.6
2018-03-04T20:30:58.626Z,3.6
2018-03-04T20:32:58.276Z,3.5
2018-03-04T20:34:57.929Z,3.5
2018-03-04T20:35:58.252Z,3.4
2018-03-04T20:37:58.095Z,3.4
2018-03-04T20:39:57.732Z,3.5
2018-03-04T20:42:57.216Z,3.5
2018-03-04T20:45:57.110Z,3.6
2018-03-04T20:47:56.767Z,3.6
2018-03-04T20:49:56.410Z,3.6
2018-03-04T20:51:56.067Z,3.7
2018-03-04T20:53:55.713Z,3.6
2018-03-04T20:55:55.754Z,3.7
2018-03-04T21:01:54.439Z,3.9
2018-03-04T21:03:54.112Z,3.9
2018-03-04T21:08:53.421Z,3.9
2018-03-04T21:10:53.062Z,3.8
2018-03-04T21:13:52.521Z,3.4
2018-03-04T21:15:52.564Z,3
2018-03-04T21:17:52.211Z,3
2018-03-04T21:21:51.377Z,3
2018-03-04T21:23:51.058Z,2.9
2018-03-04T21:26:50.830Z,2.9
2018-03-04T21:31:49.768Z,2.8
2018-03-04T21:33:49.420Z,2.9
2018-03-04T21:35:49.480Z,2.8
2018-03-04T21:37:49.127Z,2.8
2018-03-04T21:39:48.795Z,2.7
2018-03-04T21:41:48.417Z,2.7
2018-03-04T21:44:47.854Z,2.8
2018-03-04T21:46:47.948Z,2.7
2018-03-04T21:50:47.175Z,2.8
2018-03-04T21:52:46.791Z,2.7
2018-03-04T21:55:46.610Z,2.7
2018-03-04T21:57:46.254Z,2.7
2018-03-04T21:59:45.909Z,2.7
2018-03-04T22:02:45.372Z,2.7
2018-03-04T22:04:45.025Z,2.7
2018-03-04T22:05:45.340Z,2.7
2018-03-04T22:08:44.736Z,2.7
2018-03-04T22:11:44.094Z,2.7
2018-03-04T22:13:43.715Z,2.7
2018-03-04T22:16:43.592Z,2.6
2018-03-04T22:19:42.980Z,2.6
2018-03-04T22:22:42.351Z,2.6
2018-03-04T22:24:41.997Z,2.6
2018-03-04T22:26:42.277Z,2.6
2018-03-04T22:28:42.203Z,2.5
2018-03-04T22:34:40.826Z,2.7
2018-03-04T22:35:41.125Z,2.7
2018-03-04T22:37:40.817Z,2.7
2018-03-04T22:41:39.924Z,2.7
2018-03-04T22:43:39.701Z,2.7
2018-03-04T22:45:39.750Z,2.7
2018-03-04T22:47:39.415Z,2.7
2018-03-04T22:52:38.500Z,2.8
2018-03-04T22:54:38.133Z,2.8
2018-03-04T22:55:38.422Z,2.8
2018-03-04T22:57:38.057Z,2.8
2018-03-04T23:00:37.464Z,2.8
2018-03-04T23:05:36.785Z,2.9
2018-03-04T23:08:36.142Z,2.8
2018-03-04T23:10:35.786Z,2.6
2018-03-04T23:14:34.896Z,2.6
2018-03-04T23:15:35.208Z,2.6
2018-03-04T23:28:32.398Z,3.2
2018-03-04T23:30:32.085Z,3.2
2018-03-04T23:32:31.722Z,3.2
2018-03-04T23:34:31.350Z,3.2
2018-03-04T23:35:31.672Z,3.2
2018-03-04T23:41:30.298Z,3.3
2018-03-04T23:43:29.932Z,3.3
2018-03-04T23:45:29.945Z,3.4
2018-03-04T23:47:29.581Z,3.4
2018-03-04T23:52:28.429Z,3.5
2018-03-04T23:56:27.959Z,3.4
2018-03-04T23:58:27.619Z,3.4
